sensor_id;sensor_type;location;lat;lon;timestamp;pressure;altitude;pressure_sealevel;temperature;humidity
36304;BME280;22335;49.800;8.596;2023-05-27T00:02:27;101353.63;;;20.11;35.17
36304;BME280;22335;49.800;8.596;2023-05-27T00:09:10;101369.13;;;20.20;35.20
36304;BME280;22335;49.800;8.596;2023-05-27T00:15:54;101368.94;;;20.34;34.94
36304;BME280;22335;49.800;8.596;2023-05-27T00:22:39;101362.41;;;20.39;35.17
36304;BME280;22335;49.800;8.596;2023-05-27T00:29:23;101377.78;;;20.36;35.11
36304;BME280;22335;49.800;8.596;2023-05-27T00:36:06;101372.53;;;20.43;35.14
36304;BME280;22335;49.800;8.596;2023-05-27T00:42:51;101375.34;;;20.52;34.98
36304;BME280;22335;49.800;8.596;2023-05-27T00:49:35;101371.59;;;20.57;35.09
36304;BME280;22335;49.800;8.596;2023-05-27T00:56:18;101373.03;;;20.63;35.02
36304;BME280;22335;49.800;8.596;2023-05-27T01:03:04;101362.25;;;20.61;35.13
36304;BME280;22335;49.800;8.596;2023-05-27T01:09:53;101368.44;;;20.67;35.04
36304;BME280;22335;49.800;8.596;2023-05-27T01:16:41;101381.03;;;20.73;34.89
36304;BME280;22335;49.800;8.596;2023-05-27T01:23:28;101371.53;;;20.65;35.17
36304;BME280;22335;49.800;8.596;2023-05-27T01:30:12;101358.13;;;20.76;34.83
36304;BME280;22335;49.800;8.596;2023-05-27T01:37:00;101366.31;;;20.64;35.06
36304;BME280;22335;49.800;8.596;2023-05-27T01:43:49;101354.25;;;20.60;35.21
36304;BME280;22335;49.800;8.596;2023-05-27T01:50:33;101368.81;;;20.57;35.43
36304;BME280;22335;49.800;8.596;2023-05-27T01:57:17;101357.16;;;20.46;35.30
36304;BME280;22335;49.800;8.596;2023-05-27T02:04:02;101347.38;;;20.40;35.38
36304;BME280;22335;49.800;8.596;2023-05-27T02:10:46;101355.41;;;20.24;35.59
36304;BME280;22335;49.800;8.596;2023-05-27T02:17:29;101348.56;;;19.95;35.84
36304;BME280;22335;49.800;8.596;2023-05-27T02:24:14;101343.81;;;19.87;36.14
36304;BME280;22335;49.800;8.596;2023-05-27T02:30:59;101341.66;;;19.75;36.04
36304;BME280;22335;49.800;8.596;2023-05-27T02:37:43;101342.81;;;19.66;36.29
36304;BME280;22335;49.800;8.596;2023-05-27T02:44:28;101329.72;;;19.57;36.55
36304;BME280;22335;49.800;8.596;2023-05-27T03:06:14;101320.63;;;19.08;37.05
36304;BME280;22335;49.800;8.596;2023-05-27T03:12:58;101332.19;;;19.10;36.96
36304;BME280;22335;49.800;8.596;2023-05-27T03:19:42;101290.06;;;18.91;37.02
36304;BME280;22335;49.800;8.596;2023-05-27T03:26:27;101322.16;;;19.32;36.78
36304;BME280;22335;49.800;8.596;2023-05-27T03:33:12;101327.88;;;19.44;36.62
36304;BME280;22335;49.800;8.596;2023-05-27T03:39:56;101333.16;;;19.54;36.68
36304;BME280;22335;49.800;8.596;2023-05-27T03:46:42;101318.78;;;19.61;36.48
36304;BME280;22335;49.800;8.596;2023-05-27T03:53:25;101328.13;;;19.74;36.59
36304;BME280;22335;49.800;8.596;2023-05-27T04:00:10;101319.63;;;19.88;36.53
36304;BME280;22335;49.800;8.596;2023-05-27T04:07:04;101328.81;;;19.88;36.33
36304;BME280;22335;49.800;8.596;2023-05-27T04:13:50;101321.13;;;19.76;36.27
36304;BME280;22335;49.800;8.596;2023-05-27T04:20:34;101330.75;;;19.70;36.21
36304;BME280;22335;49.800;8.596;2023-05-27T04:27:22;101319.22;;;19.37;36.69
36304;BME280;22335;49.800;8.596;2023-05-27T04:34:06;101334.53;;;18.77;36.97
36304;BME280;22335;49.800;8.596;2023-05-27T04:40:51;101332.47;;;18.38;37.58
36304;BME280;22335;49.800;8.596;2023-05-27T04:47:49;101342.41;;;18.16;37.86
36304;BME280;22335;49.800;8.596;2023-05-27T04:54:35;101343.16;;;18.08;38.11
36304;BME280;22335;49.800;8.596;2023-05-27T05:01:26;101301.47;;;17.68;38.34
36304;BME280;22335;49.800;8.596;2023-05-27T05:08:21;101338.41;;;17.86;38.74
36304;BME280;22335;49.800;8.596;2023-05-27T05:15:06;101337.59;;;17.86;38.87
36304;BME280;22335;49.800;8.596;2023-05-27T05:21:50;101331.97;;;17.91;38.79
36304;BME280;22335;49.800;8.596;2023-05-27T05:28:35;101329.06;;;17.96;39.03
36304;BME280;22335;49.800;8.596;2023-05-27T05:35:20;101344.50;;;18.11;38.93
36304;BME280;22335;49.800;8.596;2023-05-27T05:42:09;101350.97;;;18.06;39.01
36304;BME280;22335;49.800;8.596;2023-05-27T05:48:54;101339.66;;;18.16;39.00
36304;BME280;22335;49.800;8.596;2023-05-27T05:55:57;101340.53;;;18.26;38.94
36304;BME280;22335;49.800;8.596;2023-05-27T06:02:40;101314.91;;;18.20;38.92
36304;BME280;22335;49.800;8.596;2023-05-27T06:09:28;101340.75;;;18.60;38.66
36304;BME280;22335;49.800;8.596;2023-05-27T06:16:15;101361.59;;;18.80;38.74
36304;BME280;22335;49.800;8.596;2023-05-27T06:23:00;101317.50;;;18.70;38.79
36304;BME280;22335;49.800;8.596;2023-05-27T06:30:05;101347.75;;;18.89;38.67
36304;BME280;22335;49.800;8.596;2023-05-27T06:36:54;101335.78;;;19.02;38.62
36304;BME280;22335;49.800;8.596;2023-05-27T06:43:38;101333.19;;;19.06;38.70
36304;BME280;22335;49.800;8.596;2023-05-27T06:50:32;101332.56;;;19.18;38.61
36304;BME280;22335;49.800;8.596;2023-05-27T06:57:16;101341.06;;;19.21;38.55
36304;BME280;22335;49.800;8.596;2023-05-27T07:04:07;101327.56;;;19.37;38.61
36304;BME280;22335;49.800;8.596;2023-05-27T07:11:10;101338.69;;;19.46;38.51
36304;BME280;22335;49.800;8.596;2023-05-27T07:17:53;101323.84;;;19.59;38.44
36304;BME280;22335;49.800;8.596;2023-05-27T07:24:37;101322.44;;;19.79;38.38
36304;BME280;22335;49.800;8.596;2023-05-27T07:31:23;101237.81;;;19.59;38.24
36304;BME280;22335;49.800;8.596;2023-05-27T07:38:12;101304.09;;;20.21;37.94
36304;BME280;22335;49.800;8.596;2023-05-27T07:44:55;101293.59;;;20.44;37.85
36304;BME280;22335;49.800;8.596;2023-05-27T07:51:40;101292.06;;;20.73;37.46
36304;BME280;22335;49.800;8.596;2023-05-27T07:58:25;101298.50;;;20.94;37.23
36304;BME280;22335;49.800;8.596;2023-05-27T08:05:26;101257.59;;;20.95;37.37
36304;BME280;22335;49.800;8.596;2023-05-27T08:12:34;101277.31;;;21.40;37.09
36304;BME280;22335;49.800;8.596;2023-05-27T08:19:29;101271.41;;;21.63;36.81
36304;BME280;22335;49.800;8.596;2023-05-27T08:26:42;101264.34;;;21.86;36.28
36304;BME280;22335;49.800;8.596;2023-05-27T08:33:34;101252.34;;;22.07;35.69
36304;BME280;22335;49.800;8.596;2023-05-27T08:40:19;101250.56;;;22.36;35.76
36304;BME280;22335;49.800;8.596;2023-05-27T08:47:06;101247.25;;;22.67;34.90
36304;BME280;22335;49.800;8.596;2023-05-27T08:53:52;101240.06;;;22.90;34.42
36304;BME280;22335;49.800;8.596;2023-05-27T09:00:35;101242.88;;;23.02;34.03
36304;BME280;22335;49.800;8.596;2023-05-27T09:07:29;101234.09;;;23.29;33.50
36304;BME280;22335;49.800;8.596;2023-05-27T09:14:20;101213.13;;;23.35;33.33
36304;BME280;22335;49.800;8.596;2023-05-27T09:21:04;101220.81;;;23.66;33.13
36304;BME280;22335;49.800;8.596;2023-05-27T09:27:47;101217.88;;;23.87;32.99
36304;BME280;22335;49.800;8.596;2023-05-27T09:34:37;101205.38;;;24.12;32.19
36304;BME280;22335;49.800;8.596;2023-05-27T09:41:23;101196.41;;;24.35;31.87
36304;BME280;22335;49.800;8.596;2023-05-27T09:48:10;101156.72;;;24.45;31.75
36304;BME280;22335;49.800;8.596;2023-05-27T09:54:56;101173.09;;;24.78;31.14
36304;BME280;22335;49.800;8.596;2023-05-27T10:01:41;101183.69;;;25.04;30.99
36304;BME280;22335;49.800;8.596;2023-05-27T10:08:28;101177.56;;;25.34;30.65
36304;BME280;22335;49.800;8.596;2023-05-27T10:15:23;101168.13;;;25.42;30.75
36304;BME280;22335;49.800;8.596;2023-05-27T10:22:09;101127.09;;;25.30;30.96
36304;BME280;22335;49.800;8.596;2023-05-27T10:29:04;101151.50;;;25.72;30.51
36304;BME280;22335;49.800;8.596;2023-05-27T10:35:51;101154.63;;;25.87;29.84
36304;BME280;22335;49.800;8.596;2023-05-27T10:42:34;101155.53;;;25.94;29.96
36304;BME280;22335;49.800;8.596;2023-05-27T10:49:23;101128.31;;;25.95;29.90
36304;BME280;22335;49.800;8.596;2023-05-27T10:56:10;101122.19;;;26.35;29.65
36304;BME280;22335;49.800;8.596;2023-05-27T11:02:53;101133.34;;;26.55;29.49
36304;BME280;22335;49.800;8.596;2023-05-27T11:09:44;101113.94;;;26.46;29.15
36304;BME280;22335;49.800;8.596;2023-05-27T11:16:29;101105.97;;;26.48;29.31
36304;BME280;22335;49.800;8.596;2023-05-27T11:23:13;101104.59;;;26.61;29.27
36304;BME280;22335;49.800;8.596;2023-05-27T11:29:56;101103.63;;;26.77;29.03
36304;BME280;22335;49.800;8.596;2023-05-27T11:36:44;101096.25;;;26.95;28.79
36304;BME280;22335;49.800;8.596;2023-05-27T11:43:27;101091.75;;;27.21;29.15
36304;BME280;22335;49.800;8.596;2023-05-27T11:50:14;101067.19;;;27.48;29.00
36304;BME280;22335;49.800;8.596;2023-05-27T11:57:00;101068.44;;;27.50;28.32
36304;BME280;22335;49.800;8.596;2023-05-27T12:03:48;101067.72;;;27.61;27.82
36304;BME280;22335;49.800;8.596;2023-05-27T12:10:31;101054.41;;;27.54;27.68
36304;BME280;22335;49.800;8.596;2023-05-27T12:17:16;101033.25;;;27.67;27.41
36304;BME280;22335;49.800;8.596;2023-05-27T12:24:00;101034.72;;;27.95;27.33
36304;BME280;22335;49.800;8.596;2023-05-27T12:30:43;101030.47;;;28.19;27.01
36304;BME280;22335;49.800;8.596;2023-05-27T12:37:29;101013.47;;;28.01;27.03
36304;BME280;22335;49.800;8.596;2023-05-27T12:44:12;101007.44;;;28.02;26.89
36304;BME280;22335;49.800;8.596;2023-05-27T12:50:56;101001.47;;;28.11;26.79
36304;BME280;22335;49.800;8.596;2023-05-27T12:57:41;100987.66;;;28.43;26.85
36304;BME280;22335;49.800;8.596;2023-05-27T13:04:25;100986.94;;;28.64;26.02
36304;BME280;22335;49.800;8.596;2023-05-27T13:11:08;100978.44;;;28.46;25.93
36304;BME280;22335;49.800;8.596;2023-05-27T13:17:53;100903.09;;;28.18;25.94
36304;BME280;22335;49.800;8.596;2023-05-27T13:24:37;100962.81;;;28.70;25.57
36304;BME280;22335;49.800;8.596;2023-05-27T13:31:21;100955.16;;;28.67;25.69
36304;BME280;22335;49.800;8.596;2023-05-27T13:38:06;100942.38;;;28.84;25.07
36304;BME280;22335;49.800;8.596;2023-05-27T13:44:53;100945.56;;;28.86;24.92
36304;BME280;22335;49.800;8.596;2023-05-27T13:51:42;100925.47;;;28.81;24.53
36304;BME280;22335;49.800;8.596;2023-05-27T13:58:27;100927.06;;;28.78;24.52
36304;BME280;22335;49.800;8.596;2023-05-27T14:05:11;100926.72;;;29.01;24.13
36304;BME280;22335;49.800;8.596;2023-05-27T14:11:54;100905.03;;;29.19;24.30
36304;BME280;22335;49.800;8.596;2023-05-27T14:18:40;100906.25;;;29.22;23.60
36304;BME280;22335;49.800;8.596;2023-05-27T14:25:24;100899.81;;;29.22;24.05
36304;BME280;22335;49.800;8.596;2023-05-27T14:32:08;100885.72;;;29.43;23.70
36304;BME280;22335;49.800;8.596;2023-05-27T14:38:53;100884.09;;;29.38;23.44
36304;BME280;22335;49.800;8.596;2023-05-27T14:45:37;100866.81;;;29.36;23.90
36304;BME280;22335;49.800;8.596;2023-05-27T14:52:20;100865.97;;;29.36;23.04
36304;BME280;22335;49.800;8.596;2023-05-27T14:59:05;100871.22;;;29.23;22.78
36304;BME280;22335;49.800;8.596;2023-05-27T15:05:49;100866.41;;;29.24;22.94
36304;BME280;22335;49.800;8.596;2023-05-27T15:12:40;100824.50;;;29.01;23.00
36304;BME280;22335;49.800;8.596;2023-05-27T15:19:25;100852.72;;;29.22;22.89
36304;BME280;22335;49.800;8.596;2023-05-27T15:26:09;100820.53;;;29.05;22.45
36304;BME280;22335;49.800;8.596;2023-05-27T15:32:54;100845.06;;;29.23;22.76
36304;BME280;22335;49.800;8.596;2023-05-27T15:39:38;100833.41;;;29.24;22.29
36304;BME280;22335;49.800;8.596;2023-05-27T15:46:22;100844.63;;;29.42;22.67
36304;BME280;22335;49.800;8.596;2023-05-27T15:53:06;100830.53;;;29.42;21.98
36304;BME280;22335;49.800;8.596;2023-05-27T15:59:51;100823.72;;;29.61;22.41
36304;BME280;22335;49.800;8.596;2023-05-27T16:06:35;100817.25;;;29.64;21.60
36304;BME280;22335;49.800;8.596;2023-05-27T16:13:21;100806.75;;;29.57;21.79
36304;BME280;22335;49.800;8.596;2023-05-27T16:20:08;100797.09;;;29.51;21.75
36304;BME280;22335;49.800;8.596;2023-05-27T16:26:52;100806.78;;;29.54;21.89
36304;BME280;22335;49.800;8.596;2023-05-27T16:33:36;100797.50;;;29.57;21.69
36304;BME280;22335;49.800;8.596;2023-05-27T16:40:20;100781.00;;;29.55;21.75
36304;BME280;22335;49.800;8.596;2023-05-27T16:47:04;100783.47;;;29.42;21.74
36304;BME280;22335;49.800;8.596;2023-05-27T16:53:47;100774.22;;;29.28;21.88
36304;BME280;22335;49.800;8.596;2023-05-27T17:00:32;100775.81;;;29.36;21.90
36304;BME280;22335;49.800;8.596;2023-05-27T17:07:16;100774.63;;;29.30;21.77
36304;BME280;22335;49.800;8.596;2023-05-27T17:14:00;100771.81;;;29.23;21.71
36304;BME280;22335;49.800;8.596;2023-05-27T17:20:45;100732.41;;;28.94;21.79
36304;BME280;22335;49.800;8.596;2023-05-27T17:27:28;100767.41;;;29.14;21.80
36304;BME280;22335;49.800;8.596;2023-05-27T17:34:12;100772.22;;;29.10;21.86
36304;BME280;22335;49.800;8.596;2023-05-27T17:40:56;100762.56;;;28.90;22.17
36304;BME280;22335;49.800;8.596;2023-05-27T17:47:42;100759.34;;;28.88;22.17
36304;BME280;22335;49.800;8.596;2023-05-27T17:54:26;100738.44;;;28.71;22.61
36304;BME280;22335;49.800;8.596;2023-05-27T18:01:11;100754.13;;;28.93;22.57
36304;BME280;22335;49.800;8.596;2023-05-27T18:07:56;100765.78;;;28.88;22.55
36304;BME280;22335;49.800;8.596;2023-05-27T18:14:39;100772.19;;;28.92;22.81
36304;BME280;22335;49.800;8.596;2023-05-27T18:21:24;100760.16;;;28.99;23.24
36304;BME280;22335;49.800;8.596;2023-05-27T18:28:07;100765.81;;;29.06;23.13
36304;BME280;22335;49.800;8.596;2023-05-27T18:34:51;100654.41;;;28.41;23.49
36304;BME280;22335;49.800;8.596;2023-05-27T18:41:36;100773.44;;;29.13;23.47
36304;BME280;22335;49.800;8.596;2023-05-27T18:48:21;100771.44;;;29.21;23.37
36304;BME280;22335;49.800;8.596;2023-05-27T18:55:05;100720.72;;;28.92;23.55
36304;BME280;22335;49.800;8.596;2023-05-27T19:01:50;100770.19;;;29.29;23.98
36304;BME280;22335;49.800;8.596;2023-05-27T19:08:34;100789.91;;;29.39;24.18
36304;BME280;22335;49.800;8.596;2023-05-27T19:15:17;100743.25;;;29.17;24.06
36304;BME280;22335;49.800;8.596;2023-05-27T19:22:02;100773.00;;;29.43;24.35
36304;BME280;22335;49.800;8.596;2023-05-27T19:28:47;100783.47;;;29.42;24.36
36304;BME280;22335;49.800;8.596;2023-05-27T19:35:30;100780.25;;;29.33;24.45
36304;BME280;22335;49.800;8.596;2023-05-27T19:42:15;100777.88;;;29.21;24.41
36304;BME280;22335;49.800;8.596;2023-05-27T19:48:59;100792.34;;;29.12;25.10
36304;BME280;22335;49.800;8.596;2023-05-27T19:55:43;100796.38;;;29.08;24.76
36304;BME280;22335;49.800;8.596;2023-05-27T20:02:28;100795.94;;;28.88;25.06
36304;BME280;22335;49.800;8.596;2023-05-27T20:09:12;100804.38;;;28.70;25.25
36304;BME280;22335;49.800;8.596;2023-05-27T20:15:55;100799.13;;;28.50;25.20
36304;BME280;22335;49.800;8.596;2023-05-27T20:22:40;100793.81;;;28.20;25.71
36304;BME280;22335;49.800;8.596;2023-05-27T20:29:24;100801.34;;;27.91;26.02
36304;BME280;22335;49.800;8.596;2023-05-27T20:36:07;100798.25;;;27.45;26.16
36304;BME280;22335;49.800;8.596;2023-05-27T20:42:52;100787.50;;;27.06;26.38
36304;BME280;22335;49.800;8.596;2023-05-27T20:49:36;100795.13;;;26.57;26.75
36304;BME280;22335;49.800;8.596;2023-05-27T20:56:19;100791.66;;;26.37;26.83
36304;BME280;22335;49.800;8.596;2023-05-27T21:03:07;100783.78;;;26.13;27.49
36304;BME280;22335;49.800;8.596;2023-05-27T21:09:51;100797.47;;;25.84;27.82
36304;BME280;22335;49.800;8.596;2023-05-27T21:16:34;100800.97;;;25.51;28.02
36304;BME280;22335;49.800;8.596;2023-05-27T21:23:20;100786.59;;;25.26;28.68
36304;BME280;22335;49.800;8.596;2023-05-27T21:30:05;100785.44;;;25.04;29.05
36304;BME280;22335;49.800;8.596;2023-05-27T21:36:49;100776.69;;;25.05;28.32
36304;BME280;22335;49.800;8.596;2023-05-27T21:43:34;100788.44;;;24.92;29.67
36304;BME280;22335;49.800;8.596;2023-05-27T21:50:18;100787.94;;;24.86;29.92
36304;BME280;22335;49.800;8.596;2023-05-27T21:57:02;100789.47;;;24.83;30.37
36304;BME280;22335;49.800;8.596;2023-05-27T22:03:47;100778.63;;;24.78;30.41
36304;BME280;22335;49.800;8.596;2023-05-27T22:10:32;100783.13;;;24.87;30.42
36304;BME280;22335;49.800;8.596;2023-05-27T22:17:15;100782.22;;;24.79;30.72
36304;BME280;22335;49.800;8.596;2023-05-27T22:24:00;100771.47;;;24.81;30.80
36304;BME280;22335;49.800;8.596;2023-05-27T22:30:44;100774.53;;;24.72;31.44
36304;BME280;22335;49.800;8.596;2023-05-27T22:37:28;100768.59;;;24.54;31.55
36304;BME280;22335;49.800;8.596;2023-05-27T22:44:12;100722.31;;;24.14;32.26
36304;BME280;22335;49.800;8.596;2023-05-27T22:50:56;100757.25;;;24.05;32.51
36304;BME280;22335;49.800;8.596;2023-05-27T22:57:40;100762.41;;;23.83;32.78
36304;BME280;22335;49.800;8.596;2023-05-27T23:04:24;100747.78;;;23.70;32.81
36304;BME280;22335;49.800;8.596;2023-05-27T23:11:08;100765.66;;;23.50;32.91
36304;BME280;22335;49.800;8.596;2023-05-27T23:17:51;100739.59;;;23.42;33.22
36304;BME280;22335;49.800;8.596;2023-05-27T23:24:36;100734.00;;;23.42;33.21
36304;BME280;22335;49.800;8.596;2023-05-27T23:31:20;100727.09;;;23.36;32.96
36304;BME280;22335;49.800;8.596;2023-05-27T23:38:03;100723.50;;;23.36;32.82
36304;BME280;22335;49.800;8.596;2023-05-27T23:44:48;100712.66;;;23.34;32.69
36304;BME280;22335;49.800;8.596;2023-05-27T23:51:32;100717.97;;;23.39;32.21
36304;BME280;22335;49.800;8.596;2023-05-27T23:58:17;100716.78;;;23.40;31.98
